Flight Track Log - Related Links

Times and Time Zones

All times are in EDT time to prevent confusion due to time zone crossing. See the SKW7367 flight status page for this flight to view local times or setup timezone preferences in your user account.

Time Position Orientation Groundspeed Altitude Reporting Facility
EDT Latitude Longitude Course Direction KTS MPH feet Rate Location/Type
Thu 04:30:49 PM 42.2106 -83.3650 313° West 145 167 1,200  Level Cleveland Center
Thu 04:31:01 PM 42.2056 -83.3728 229° Southwest 145 167 1,800 2,270 Climbing Cleveland Center
Thu 04:32:03 PM 42.1728 -83.4158 224° Southwest 210 242 4,000 2,000 Climbing Cleveland Center
Thu 04:32:07 PM 42.1714 -83.4144 143° Southeast 165 190 4,000 2,754 Level Cleveland Center
Thu 04:33:04 PM 42.1314 -83.4889 234° Southwest 255 293 6,800 2,613 Climbing Cleveland Center
Thu 04:33:09 PM 42.1297 -83.4831 111° Southeast 241 277 6,700 2,507 Descending Cleveland Center
Thu 04:34:00 PM 42.6321 -83.3825 340° North  Level Estimated
Thu 04:34:11 PM 42.1461 -83.5806 283° West 277 319 9,600  Level Cleveland Center
Thu 04:35:00 PM 42.7370 -83.3898 North  Level Estimated
Thu 04:35:13 PM 42.2175 -83.6297 333° Northwest 317 365 11,400  Level Cleveland Center
Thu 04:36:00 PM 42.8419 -83.3972 313° West  Level Estimated
Thu 04:36:15 PM 42.3122 -83.5981 14° North 345 397 13,900  Level Cleveland Center
Thu 04:37:17 PM 42.4194 -83.5550 17° North 354 407 15,000 532 Climbing Cleveland Center
Thu 04:38:19 PM 42.5056 -83.5231 15° North 359 413 15,000  Level Cleveland Center
Thu 04:39:21 PM 42.5981 -83.4875 16° North 347 399 15,000  Level Cleveland Center
Thu 04:41:25 PM 42.8053 -83.4061 16° North 352 405 15,000  Level Cleveland Center
Thu 04:42:28 PM 42.9011 -83.3689 16° North 357 411 15,000 -48 Level Cleveland Center
Thu 04:43:30 PM 43.0014 -83.3681 360° North 360 414 14,900 -48 Descending Cleveland Center
Thu 04:44:32 PM 43.0961 -83.3972 347° North 348 400 14,900  Level Cleveland Center
Thu 04:45:34 PM 43.1814 -83.4942 320° Northwest 349 402 14,900  Level Cleveland Center
Thu 04:46:36 PM 43.2806 -83.4958 359° North 354 407 14,900  Level Cleveland Center
Thu 04:47:38 PM 43.3803 -83.5006 358° North 357 411 14,900 48 Level Cleveland Center
Thu 04:48:40 PM 43.4806 -83.5028 359° North 360 414 15,000 48 Climbing Cleveland Center
Thu 04:49:42 PM 43.5792 -83.5067 358° North 356 410 15,000  Level Cleveland Center
Thu 04:50:15 PM 43.6433 -83.5100 358° North 358 412 15,000  Level Minneapolis Center
Thu 04:51:17 PM 43.7431 -83.5136 359° North 359 413 15,000  Level Minneapolis Center
Thu 04:52:19 PM 43.8436 -83.5172 359° North 361 415 15,000  Level Minneapolis Center
Thu 04:53:21 PM 43.9606 -83.5203 359° North 363 418 15,000  Level Minneapolis Center
Thu 04:54:23 PM 44.0606 -83.5233 359° North 364 419 15,000  Level Minneapolis Center
Thu 04:55:25 PM 44.1669 -83.5275 358° North 358 412 15,000 -336 Level Minneapolis Center
Thu 04:56:28 PM 44.2672 -83.5308 359° North 365 420 14,300 -1,152 Descending Minneapolis Center
Thu 04:57:30 PM 44.3725 -83.5350 358° North 356 410 12,600 -1,452 Descending Minneapolis Center
Thu 04:58:32 PM 44.4581 -83.5356 360° North 317 365 11,300 -1,161 Descending Minneapolis Center
Thu 04:59:34 PM 44.5478 -83.5406 358° North 304 350 10,200 -1,161 Descending Minneapolis Center
Thu 05:00:36 PM 44.6361 -83.5419 359° North 297 342 8,900 -1,113 Descending Minneapolis Center
Thu 05:01:38 PM 44.7150 -83.5431 359° North 291 335 7,900 -1,113 Descending Minneapolis Center
Thu 05:02:40 PM 44.8003 -83.5453 359° North 287 330 6,600 -1,210 Descending Minneapolis Center
Thu 05:03:42 PM 44.8783 -83.5336 North 289 333 5,400 -1,258 Descending Minneapolis Center
Thu 05:04:44 PM 44.9622 -83.5236 North 281 323 4,000 -1,016 Descending Minneapolis Center
Thu 05:05:46 PM 45.0394 -83.5236 360° North 282 325 3,300 -576 Descending Minneapolis Center
Thu 05:06:49 PM 45.1019 -83.5181 North 218 251 2,800 -480 Descending Minneapolis Center
Thu 05:07:51 PM 45.1508 -83.5242 355° North 180 207 2,300 -581 Descending Minneapolis Center
Thu 05:08:53 PM 45.1361 -83.5628 242° Southwest 142 163 1,600 -677 Descending Minneapolis Center
Thu 05:09:55 PM 45.0986 -83.5611 178° South 127 146 900 -677 Descending Minneapolis Center

Login

Don't have an account? Register now (free) for customized features, flight alerts, and more!